Time;durP1;ratioP1;P1;durP2;ratioP2;P2;SDS_P1;SDS_P2;PMS_P1;PMS_P2;Temp;Humidity;BMP_temperature;BMP_pressure;BME280_temperature;BME280_humidity;BME280_pressure;Samples;Min_cycle;Max_cycle;Signal;HPM_P1;HPM_P2
2022/01/12 00:01:54;;;;;;;111.18;43.60;;;3.20;99.90;;;;;;5124983;28;20047;-68
2022/01/12 00:04:20;;;;;;;110.00;43.55;;;3.30;99.90;;;;;;5123984;28;20093;-67
2022/01/12 00:06:46;;;;;;;111.25;42.53;;;3.30;99.90;;;;;;5124797;28;20084;-68
2022/01/12 00:09:12;;;;;;;117.22;43.40;;;3.30;99.90;;;;;;5125120;27;20069;-68
2022/01/12 00:11:37;;;;;;;116.22;42.00;;;3.20;99.90;;;;;;5124814;28;20095;-67
2022/01/12 00:14:04;;;;;;;121.13;44.20;;;3.30;99.90;;;;;;5123600;28;20051;-67
2022/01/12 00:16:31;;;;;;;138.30;44.30;;;3.20;99.90;;;;;;5124291;28;20047;-68
2022/01/12 00:18:57;;;;;;;128.05;44.15;;;3.20;99.90;;;;;;5119497;28;20074;-68
2022/01/12 00:21:24;;;;;;;121.60;44.50;;;3.20;99.90;;;;;;5113347;28;20032;-68
2022/01/12 00:23:50;;;;;;;125.13;43.53;;;3.30;99.90;;;;;;5124692;28;20073;-67
2022/01/12 00:33:09;;;;;;;112.95;42.92;;;3.30;99.90;;;;;;5118606;28;20050;-67
2022/01/12 00:34:29;;;;;;;149.02;45.08;;;3.40;99.90;;;;;;5113609;28;20073;-68
2022/01/12 00:36:54;;;;;;;151.07;46.40;;;3.40;99.90;;;;;;5123334;28;20047;-67
2022/01/12 00:39:20;;;;;;;167.90;48.88;;;3.40;99.90;;;;;;5124182;28;20118;-68
2022/01/12 00:41:47;;;;;;;160.48;46.83;;;3.30;99.90;;;;;;5122320;28;20506;-68
2022/01/12 00:44:22;;;;;;;161.55;49.92;;;3.40;99.90;;;;;;5122911;28;20058;-67
2022/01/12 00:46:49;;;;;;;183.55;49.15;;;3.40;99.90;;;;;;5111645;28;20048;-68
2022/01/12 00:49:14;;;;;;;187.63;49.33;;;3.30;99.90;;;;;;5117320;28;20088;-67
2022/01/12 00:51:40;;;;;;;173.20;49.10;;;3.40;99.90;;;;;;5117206;28;20464;-67
2022/01/12 00:54:08;;;;;;;196.73;49.15;;;3.40;99.90;;;;;;5124043;28;20047;-68
2022/01/12 00:56:34;;;;;;;216.35;51.97;;;3.40;99.90;;;;;;5123872;28;20048;-67
2022/01/12 00:59:00;;;;;;;237.63;54.05;;;3.30;99.90;;;;;;5155872;27;20051;-68
2022/01/12 01:01:26;;;;;;;211.88;53.13;;;3.30;99.90;;;;;;5158403;27;20050;-67
2022/01/12 01:03:52;;;;;;;231.93;52.90;;;3.40;99.90;;;;;;5125352;28;20082;-67
2022/01/12 01:06:19;;;;;;;233.63;52.60;;;3.30;99.90;;;;;;5124855;28;20039;-67
2022/01/12 01:08:48;;;;;;;216.40;50.85;;;3.30;99.90;;;;;;5157262;27;20063;-68
2022/01/12 01:11:14;;;;;;;213.80;53.80;;;3.30;99.90;;;;;;5123040;28;20052;-67
2022/01/12 01:13:56;;;;;;;223.13;51.88;;;3.40;99.90;;;;;;5111253;28;20086;-68
2022/01/12 01:27:08;;;;;;;234.48;54.20;;;3.40;99.90;;;;;;5146591;27;20576;-67
2022/01/12 01:29:34;;;;;;;273.83;55.25;;;3.40;99.90;;;;;;5117045;28;20039;-68
2022/01/12 01:32:00;;;;;;;266.23;56.08;;;3.50;99.90;;;;;;5110734;28;20492;-67
2022/01/12 01:34:27;;;;;;;274.50;55.72;;;3.30;99.90;;;;;;5140083;28;20074;-68
2022/01/12 01:36:55;;;;;;;297.25;57.10;;;3.30;99.90;;;;;;5124715;28;20523;-67
2022/01/12 01:39:24;;;;;;;279.48;55.88;;;3.40;99.90;;;;;;5125941;28;20039;-68
2022/01/12 01:42:01;;;;;;;279.58;55.28;;;3.30;99.90;;;;;;5112961;28;20509;-67
2022/01/12 01:55:13;;;;;;;222.80;51.90;;;3.50;99.90;;;;;;5126240;28;20047;-67
2022/01/12 01:57:40;;;;;;;269.60;54.92;;;3.40;99.90;;;;;;5109419;28;20063;-68
2022/01/12 02:00:09;;;;;;;231.63;53.53;;;3.40;99.90;;;;;;5108831;28;20047;-67
2022/01/12 02:02:35;;;;;;;244.73;52.40;;;3.50;99.90;;;;;;5126976;28;20213;-68
2022/01/12 02:05:01;;;;;;;252.10;52.97;;;3.50;99.90;;;;;;5104140;28;20079;-67
2022/01/12 02:07:27;;;;;;;298.27;57.25;;;3.50;99.90;;;;;;5108688;28;20043;-67
2022/01/12 02:09:53;;;;;;;248.95;53.15;;;3.50;99.90;;;;;;5108505;28;20047;-68
2022/01/12 02:12:27;;;;;;;314.33;57.92;;;3.50;99.90;;;;;;5126407;28;20099;-68
2022/01/12 02:14:55;;;;;;;318.95;59.45;;;3.40;99.90;;;;;;5126850;28;20043;-68
2022/01/12 02:17:26;;;;;;;256.85;53.42;;;3.50;99.90;;;;;;5109075;28;20048;-68
2022/01/12 02:36:22;;;;;;;358.35;61.28;;;3.60;99.90;;;;;;5126350;27;20055;-67
2022/01/12 02:41:33;;;;;;;362.75;57.83;;;3.60;99.90;;;;;;5126428;27;20054;-67
2022/01/12 02:54:47;;;;;;;366.40;56.20;;;3.60;99.90;;;;;;5127578;28;20044;-68
2022/01/12 02:57:13;;;;;;;349.02;53.28;;;3.50;99.90;;;;;;5151329;27;20114;-68
2022/01/12 02:59:55;;;;;;;454.30;62.25;;;3.70;99.90;;;;;;5159137;27;20514;-68
2022/01/12 03:02:28;;;;;;;408.55;59.17;;;3.60;99.90;;;;;;5120505;28;20110;-68
2022/01/12 03:07:36;;;;;;;394.92;57.72;;;3.70;99.90;;;;;;5118368;28;20058;-68
2022/01/12 03:10:03;;;;;;;293.70;51.75;;;3.60;99.90;;;;;;5114659;28;20491;-68
2022/01/12 03:12:28;;;;;;;382.98;55.70;;;3.70;99.90;;;;;;5124454;28;20050;-67
2022/01/12 03:14:54;;;;;;;394.35;56.67;;;3.70;99.90;;;;;;5114685;28;20040;-67
2022/01/12 03:17:20;;;;;;;301.30;52.22;;;3.70;99.90;;;;;;5116462;28;20044;-68
2022/01/12 03:19:46;;;;;;;326.33;53.05;;;3.70;99.90;;;;;;5158785;27;20056;-67
2022/01/12 03:22:12;;;;;;;325.38;54.05;;;3.60;99.90;;;;;;5125594;28;20147;-68
2022/01/12 03:24:38;;;;;;;341.23;56.03;;;3.70;99.90;;;;;;5126615;28;20102;-68
2022/01/12 03:27:06;;;;;;;380.00;54.40;;;3.60;99.90;;;;;;5124446;28;20078;-67
2022/01/12 03:29:32;;;;;;;287.38;51.85;;;3.70;99.90;;;;;;5153730;27;20050;-68
2022/01/12 03:31:59;;;;;;;361.88;53.67;;;3.60;99.90;;;;;;5140628;27;20112;-68
2022/01/12 03:34:30;;;;;;;304.13;52.10;;;3.60;99.90;;;;;;5113449;28;20043;-68
2022/01/12 03:37:39;;;;;;;391.58;56.40;;;3.70;99.90;;;;;;5118220;28;20104;-67
2022/01/12 03:40:00;;;;;;;372.13;54.70;;;3.70;99.90;;;;;;5117847;28;20048;-68
2022/01/12 03:42:26;;;;;;;269.52;47.58;;;3.60;99.90;;;;;;5123690;28;20494;-68
2022/01/12 03:44:51;;;;;;;302.38;53.30;;;3.70;99.90;;;;;;5125019;28;20131;-68
2022/01/12 03:47:17;;;;;;;337.23;53.60;;;3.60;99.90;;;;;;5125470;28;20119;-68
2022/01/12 03:49:43;;;;;;;307.13;50.20;;;3.70;99.90;;;;;;5150891;27;20081;-67
2022/01/12 03:52:09;;;;;;;276.02;50.65;;;3.70;99.90;;;;;;5123970;28;20040;-68
2022/01/12 03:54:34;;;;;;;302.55;49.05;;;3.60;99.90;;;;;;5112565;28;20054;-68
2022/01/12 03:57:00;;;;;;;289.95;51.85;;;3.70;99.90;;;;;;5124031;28;20058;-67
2022/01/12 03:59:26;;;;;;;300.88;49.25;;;3.80;99.90;;;;;;5136827;27;20058;-68
2022/01/12 04:01:52;;;;;;;247.63;49.92;;;3.80;99.90;;;;;;5119221;28;20050;-67
2022/01/12 04:04:23;;;;;;;218.63;49.10;;;3.60;99.90;;;;;;5124818;28;20072;-68
2022/01/12 04:09:33;;;;;;;273.67;51.45;;;3.70;99.90;;;;;;5120843;28;20050;-68
2022/01/12 04:11:59;;;;;;;249.13;48.85;;;3.70;99.90;;;;;;5124777;28;20048;-67
2022/01/12 04:14:24;;;;;;;243.88;48.80;;;3.70;99.90;;;;;;5122966;28;20039;-67
2022/01/12 04:16:50;;;;;;;242.98;46.70;;;3.60;99.90;;;;;;5122503;28;20120;-68
2022/01/12 04:19:16;;;;;;;272.10;48.25;;;3.40;99.90;;;;;;5124596;28;20059;-67
2022/01/12 04:21:46;;;;;;;284.45;50.00;;;3.50;99.90;;;;;;5123624;28;20074;-68
2022/01/12 04:24:13;;;;;;;260.05;48.22;;;3.40;99.90;;;;;;5158839;27;20067;-68
2022/01/12 04:26:39;;;;;;;251.77;48.08;;;3.50;99.90;;;;;;5124611;28;20043;-68
2022/01/12 04:29:07;;;;;;;248.30;47.45;;;3.60;99.90;;;;;;5157435;27;20086;-68
2022/01/12 04:31:35;;;;;;;287.75;48.35;;;3.50;99.90;;;;;;5117027;28;20056;-68
2022/01/12 04:34:02;;;;;;;281.63;48.25;;;3.40;99.90;;;;;;5108381;28;20060;-68
2022/01/12 04:36:28;;;;;;;297.42;48.35;;;3.30;99.90;;;;;;5125195;28;20044;-67
2022/01/12 04:38:54;;;;;;;382.52;50.80;;;3.30;99.90;;;;;;5121357;28;20107;-68
2022/01/12 04:41:22;;;;;;;546.33;56.05;;;3.30;99.90;;;;;;5106157;28;20517;-68
2022/01/12 04:43:49;;;;;;;724.92;62.58;;;3.20;99.90;;;;;;5123868;28;20123;-68
2022/01/12 04:51:17;;;;;;;682.15;60.40;;;3.00;99.90;;;;;;5123806;28;20184;-68
2022/01/12 04:53:42;;;;;;;647.92;59.78;;;2.90;99.90;;;;;;5105626;28;20512;-68
2022/01/12 04:56:08;;;;;;;759.08;63.70;;;2.90;99.90;;;;;;5123914;28;20074;-67
2022/01/12 04:58:34;;;;;;;798.42;64.20;;;2.80;99.90;;;;;;5124323;28;20043;-68
2022/01/12 05:01:11;;;;;;;773.97;64.03;;;3.00;99.90;;;;;;5105360;28;20052;-68
2022/01/12 05:06:42;;;;;;;732.75;63.10;;;3.00;99.90;;;;;;5087255;28;20079;-68
2022/01/12 05:14:43;;;;;;;705.70;62.00;;;3.00;99.90;;;;;;5101698;28;20125;-67
2022/01/12 05:17:09;;;;;;;563.08;51.45;;;3.10;99.90;;;;;;5102926;28;20047;-67
2022/01/12 05:19:34;;;;;;;664.08;58.80;;;3.00;99.90;;;;;;5122971;28;20042;-67
2022/01/12 05:22:00;;;;;;;479.65;46.70;;;3.00;99.90;;;;;;5104720;28;20044;-67
2022/01/12 05:24:26;;;;;;;523.35;46.28;;;3.00;99.90;;;;;;5104030;28;20039;-67
2022/01/12 05:26:51;;;;;;;537.10;47.13;;;2.80;99.90;;;;;;5118622;28;20036;-67
2022/01/12 05:29:17;;;;;;;500.85;48.40;;;2.80;99.90;;;;;;5108991;28;20062;-68
2022/01/12 05:31:43;;;;;;;526.55;46.67;;;2.70;99.90;;;;;;5095374;28;20122;-67
2022/01/12 05:34:08;;;;;;;494.45;45.63;;;2.70;99.90;;;;;;5127184;28;20077;-67
2022/01/12 05:36:34;;;;;;;461.25;46.28;;;2.70;99.90;;;;;;5092922;28;20048;-67
2022/01/12 05:39:00;;;;;;;475.08;46.38;;;2.70;99.90;;;;;;5109993;28;20075;-67
2022/01/12 05:41:27;;;;;;;429.58;43.38;;;2.70;99.90;;;;;;5119450;28;20059;-67
2022/01/12 05:43:53;;;;;;;416.70;43.50;;;2.60;99.90;;;;;;5109868;28;20035;-67
2022/01/12 05:46:23;;;;;;;407.67;43.88;;;2.70;99.90;;;;;;5133822;27;20660;-67
2022/01/12 05:51:33;;;;;;;497.20;48.45;;;2.70;99.90;;;;;;5097598;28;20102;-67
2022/01/12 05:53:59;;;;;;;412.98;43.90;;;2.60;99.90;;;;;;5105980;28;20040;-67
2022/01/12 05:56:25;;;;;;;542.42;52.30;;;2.70;99.90;;;;;;5107633;28;20052;-67
2022/01/12 05:58:51;;;;;;;421.50;44.45;;;2.60;99.90;;;;;;5101961;28;20104;-68
2022/01/12 06:01:18;;;;;;;421.67;45.55;;;2.60;99.90;;;;;;5117539;28;20073;-67
2022/01/12 06:03:43;;;;;;;497.27;49.42;;;2.60;99.90;;;;;;5108939;28;20047;-67
2022/01/12 06:06:09;;;;;;;474.10;48.40;;;2.60;99.90;;;;;;5127102;28;20062;-67
2022/01/12 06:08:35;;;;;;;459.95;50.42;;;2.70;99.90;;;;;;5092138;28;20083;-67
2022/01/12 06:11:01;;;;;;;520.20;50.63;;;2.70;99.90;;;;;;5127963;28;20043;-67
2022/01/12 06:13:26;;;;;;;450.55;44.75;;;2.60;99.90;;;;;;5126822;28;20099;-67
2022/01/12 06:15:52;;;;;;;471.02;47.85;;;2.50;99.90;;;;;;5120562;28;20059;-67
2022/01/12 06:18:18;;;;;;;379.42;41.55;;;2.50;99.90;;;;;;5124527;28;20113;-68
2022/01/12 06:20:43;;;;;;;400.73;42.08;;;2.60;99.90;;;;;;5099542;28;20048;-67
2022/01/12 06:23:09;;;;;;;327.85;41.63;;;2.60;99.90;;;;;;5123798;28;20039;-67
2022/01/12 06:25:35;;;;;;;410.20;45.45;;;2.60;99.90;;;;;;5109159;28;20047;-67
2022/01/12 06:28:22;;;;;;;506.10;49.42;;;2.50;99.90;;;;;;5106842;27;20055;-66
2022/01/12 06:33:33;;;;;;;433.27;42.55;;;2.50;99.90;;;;;;5128982;27;20428;-65
2022/01/12 06:35:58;;;;;;;459.42;46.10;;;2.60;99.90;;;;;;5120488;28;20051;-66
2022/01/12 06:38:24;;;;;;;422.90;45.53;;;2.50;99.90;;;;;;5104271;28;20109;-69
2022/01/12 06:40:50;;;;;;;426.15;47.58;;;2.50;99.90;;;;;;5139959;27;20080;-68
2022/01/12 06:43:16;;;;;;;390.85;44.72;;;2.50;99.90;;;;;;5121719;27;20045;-68
2022/01/12 06:45:41;;;;;;;279.17;41.22;;;2.50;99.90;;;;;;5140364;27;20044;-68
2022/01/12 06:48:07;;;;;;;348.67;45.08;;;2.60;99.90;;;;;;5140262;27;20118;-69
2022/01/12 06:50:33;;;;;;;322.77;46.15;;;2.80;99.90;;;;;;5097902;28;20047;-68
2022/01/12 06:52:58;;;;;;;276.20;45.15;;;2.70;99.90;;;;;;5103934;28;20055;-67
2022/01/12 06:55:25;;;;;;;241.30;43.42;;;2.90;99.90;;;;;;5140194;27;20125;-67
2022/01/12 06:57:51;;;;;;;310.75;46.42;;;2.90;99.90;;;;;;5105944;28;20043;-67
2022/01/12 07:00:17;;;;;;;273.98;42.47;;;2.90;99.90;;;;;;5124677;28;20068;-67
2022/01/12 07:02:43;;;;;;;225.93;43.58;;;3.00;99.90;;;;;;5106799;28;20047;-67
2022/01/12 07:05:09;;;;;;;214.30;38.50;;;3.00;99.90;;;;;;5140500;27;20104;-68
2022/01/12 07:07:34;;;;;;;274.48;42.70;;;2.90;99.90;;;;;;5139922;27;20077;-69
2022/01/12 07:10:00;;;;;;;285.48;42.20;;;2.90;99.90;;;;;;5125823;28;20081;-69
2022/01/12 07:12:26;;;;;;;334.70;43.67;;;2.90;99.90;;;;;;5123288;28;20044;-69
2022/01/12 07:14:52;;;;;;;395.95;47.15;;;2.90;99.90;;;;;;5121177;27;20092;-68
2022/01/12 07:17:17;;;;;;;354.15;45.97;;;2.80;99.90;;;;;;5123915;28;20066;-65
2022/01/12 07:19:43;;;;;;;432.40;48.40;;;2.80;99.90;;;;;;5124727;28;20044;-67
2022/01/12 07:22:09;;;;;;;477.00;49.17;;;2.90;99.90;;;;;;5102253;28;20040;-67
2022/01/12 07:24:35;;;;;;;464.60;48.13;;;2.80;99.90;;;;;;5105581;27;20043;-69
2022/01/12 07:27:00;;;;;;;484.17;52.28;;;2.80;99.90;;;;;;5085809;27;20046;-67
2022/01/12 07:29:26;;;;;;;387.60;46.50;;;2.90;99.90;;;;;;5075356;28;20173;-67
2022/01/12 07:31:52;;;;;;;485.13;48.97;;;2.80;99.90;;;;;;5100717;27;20131;-67
2022/01/12 07:34:18;;;;;;;440.08;45.03;;;2.80;99.90;;;;;;5125894;27;20111;-67
2022/01/12 07:36:43;;;;;;;446.67;47.33;;;2.80;99.90;;;;;;5112404;27;20086;-67
2022/01/12 07:39:10;;;;;;;378.42;43.70;;;2.80;99.90;;;;;;5063703;28;20566;-67
2022/01/12 07:41:36;;;;;;;439.05;47.55;;;2.80;99.90;;;;;;5057898;28;20138;-67
2022/01/12 07:44:02;;;;;;;392.58;44.10;;;2.80;99.90;;;;;;5092780;28;20074;-67
2022/01/12 07:46:28;;;;;;;324.70;43.00;;;2.80;99.90;;;;;;5102682;27;20118;-67
2022/01/12 07:48:54;;;;;;;362.95;43.83;;;2.80;99.90;;;;;;5089495;28;20105;-67
2022/01/12 07:51:20;;;;;;;414.23;43.78;;;2.90;99.90;;;;;;5103007;27;20265;-63
2022/01/12 07:53:45;;;;;;;402.58;41.83;;;2.70;99.90;;;;;;5118525;27;20350;-64
2022/01/12 07:56:12;;;;;;;455.40;46.20;;;2.60;99.90;;;;;;5099628;27;20055;-64
2022/01/12 07:58:38;;;;;;;484.15;46.97;;;2.60;99.90;;;;;;5101898;28;20043;-64
2022/01/12 08:01:04;;;;;;;452.52;46.22;;;2.50;99.90;;;;;;5103754;27;20055;-64
2022/01/12 08:03:29;;;;;;;280.52;38.83;;;2.50;99.90;;;;;;5104674;28;20150;-64
2022/01/12 08:05:56;;;;;;;360.58;43.85;;;2.50;99.90;;;;;;5106570;27;20066;-64
2022/01/12 08:08:22;;;;;;;317.30;41.75;;;2.80;99.90;;;;;;5101874;28;20055;-64
2022/01/12 08:10:48;;;;;;;382.48;47.28;;;2.80;99.90;;;;;;5118839;27;20043;-64
2022/01/12 08:13:14;;;;;;;491.15;49.42;;;2.90;99.90;;;;;;5109654;28;20063;-64
2022/01/12 08:15:40;;;;;;;473.15;48.22;;;2.90;99.90;;;;;;5097531;27;20058;-64
2022/01/12 08:18:06;;;;;;;392.92;41.38;;;3.00;99.90;;;;;;5101467;27;20052;-64
2022/01/12 08:20:32;;;;;;;432.25;42.20;;;2.90;99.90;;;;;;5113372;27;20178;-64
2022/01/12 08:22:58;;;;;;;391.92;43.03;;;3.00;99.90;;;;;;5108063;28;20337;-64
2022/01/12 08:25:25;;;;;;;294.20;39.90;;;2.90;99.90;;;;;;5091092;27;20051;-64
2022/01/12 08:27:51;;;;;;;319.15;39.78;;;3.00;99.90;;;;;;5106433;28;20079;-64
2022/01/12 08:30:21;;;;;;;314.40;41.17;;;2.90;99.90;;;;;;5074461;27;20044;-64
2022/01/12 08:32:50;;;;;;;253.52;36.80;;;3.00;99.90;;;;;;5125856;27;20094;-64
2022/01/12 08:35:18;;;;;;;375.80;43.38;;;3.00;99.90;;;;;;5108834;27;20112;-64
2022/01/12 08:37:45;;;;;;;378.15;42.33;;;3.00;99.90;;;;;;5108108;28;20043;-64
2022/01/12 08:40:13;;;;;;;327.60;39.95;;;2.90;99.90;;;;;;5080070;28;20043;-64
2022/01/12 08:42:39;;;;;;;288.45;38.00;;;2.90;99.90;;;;;;5087064;28;20062;-64
2022/01/12 08:45:06;;;;;;;324.50;39.30;;;3.00;99.90;;;;;;5118248;28;20294;-64
2022/01/12 08:47:32;;;;;;;246.68;35.92;;;3.10;99.90;;;;;;5112922;28;20073;-64
2022/01/12 08:49:57;;;;;;;189.18;32.55;;;3.00;99.90;;;;;;5076831;28;20044;-65
2022/01/12 08:52:24;;;;;;;248.98;34.85;;;3.10;99.90;;;;;;5131218;28;20075;-64
2022/01/12 08:54:51;;;;;;;203.65;33.78;;;3.20;99.90;;;;;;5123399;28;20054;-64
2022/01/12 08:57:17;;;;;;;227.45;33.28;;;3.20;99.90;;;;;;5135157;27;20058;-64
2022/01/12 08:59:44;;;;;;;206.20;32.50;;;3.30;99.90;;;;;;5088553;28;20051;-65
2022/01/12 09:02:13;;;;;;;244.70;35.67;;;3.40;99.90;;;;;;5123943;27;20587;-64
2022/01/12 09:04:39;;;;;;;242.45;34.65;;;3.50;99.90;;;;;;5121310;28;20050;-64
2022/01/12 09:07:05;;;;;;;165.75;30.67;;;3.50;99.90;;;;;;5109178;27;20046;-62
2022/01/12 09:09:30;;;;;;;154.00;30.10;;;3.50;99.90;;;;;;5103149;28;20432;-63
2022/01/12 09:11:57;;;;;;;171.30;31.10;;;3.40;99.90;;;;;;5128214;27;20052;-63
2022/01/12 09:14:23;;;;;;;155.38;29.63;;;3.60;99.90;;;;;;5101887;27;20078;-62
2022/01/12 09:16:56;;;;;;;178.32;30.17;;;3.70;99.90;;;;;;5095261;28;20059;-63
2022/01/12 09:19:23;;;;;;;204.15;31.63;;;3.60;99.90;;;;;;5139311;27;20050;-63
2022/01/12 09:21:49;;;;;;;222.35;32.78;;;3.70;99.90;;;;;;5108010;27;20082;-63
2022/01/12 09:24:16;;;;;;;221.05;30.30;;;3.70;99.90;;;;;;5104927;28;20035;-64
2022/01/12 09:26:42;;;;;;;179.20;27.23;;;3.80;99.90;;;;;;5127260;27;20047;-73
2022/01/12 09:29:07;;;;;;;225.35;29.17;;;4.00;99.90;;;;;;5104224;28;20115;-64
2022/01/12 09:31:33;;;;;;;241.63;32.22;;;4.00;99.90;;;;;;5103837;28;20461;-65
2022/01/12 09:33:59;;;;;;;191.60;27.65;;;4.10;99.90;;;;;;5099406;28;20281;-67
2022/01/12 09:36:25;;;;;;;167.82;27.30;;;4.10;99.90;;;;;;5083338;27;20086;-65
2022/01/12 09:38:51;;;;;;;139.10;27.13;;;4.20;99.90;;;;;;5098066;28;20052;-65
2022/01/12 09:41:16;;;;;;;133.27;23.55;;;4.10;99.90;;;;;;5092560;28;20052;-65
2022/01/12 09:43:43;;;;;;;111.30;22.38;;;4.20;99.90;;;;;;5126973;27;20134;-64
2022/01/12 09:46:09;;;;;;;116.22;21.48;;;4.20;99.90;;;;;;5117385;27;20507;-65
2022/01/12 09:48:36;;;;;;;107.95;21.48;;;4.40;99.90;;;;;;5111598;28;20048;-68
2022/01/12 09:51:06;;;;;;;88.90;19.38;;;4.40;99.90;;;;;;5090316;27;20047;-63
2022/01/12 09:53:34;;;;;;;109.15;21.40;;;4.30;99.90;;;;;;5124097;27;20072;-64
2022/01/12 09:56:03;;;;;;;87.63;20.48;;;4.40;99.90;;;;;;5115949;27;20043;-65
2022/01/12 09:58:35;;;;;;;82.88;19.63;;;4.40;99.90;;;;;;5086483;28;20106;-66
2022/01/12 10:01:03;;;;;;;93.25;20.15;;;4.50;99.90;;;;;;5101458;27;20083;-66
2022/01/12 10:03:28;;;;;;;76.25;19.95;;;4.60;99.90;;;;;;5106039;28;20140;-66
2022/01/12 10:05:55;;;;;;;86.95;18.90;;;4.70;99.90;;;;;;5092799;27;20070;-66
2022/01/12 10:08:21;;;;;;;92.15;19.33;;;4.70;99.90;;;;;;5107442;28;20116;-64
2022/01/12 10:11:05;;;;;;;86.93;19.90;;;4.70;99.90;;;;;;5091684;27;20089;-64
2022/01/12 10:13:31;;;;;;;91.13;20.20;;;4.90;99.90;;;;;;5109789;28;20587;-64
2022/01/12 10:15:57;;;;;;;96.38;19.00;;;4.80;99.90;;;;;;5098706;27;20081;-65
2022/01/12 10:18:23;;;;;;;96.95;20.08;;;5.00;99.90;;;;;;5111487;28;20124;-64
2022/01/12 10:20:50;;;;;;;94.30;19.48;;;5.00;99.90;;;;;;5126867;27;20086;-64
2022/01/12 10:23:20;;;;;;;95.03;19.70;;;5.00;99.90;;;;;;5094737;28;20124;-65
2022/01/12 10:25:47;;;;;;;87.03;17.45;;;5.00;99.90;;;;;;5117185;27;20047;-64
2022/01/12 10:28:18;;;;;;;81.60;15.45;;;5.00;99.90;;;;;;5096223;28;20040;-64
2022/01/12 10:30:53;;;;;;;93.45;15.75;;;5.10;99.90;;;;;;5072458;27;20047;-64
2022/01/12 10:33:19;;;;;;;78.70;13.00;;;5.10;99.90;;;;;;5101627;27;20079;-64
2022/01/12 10:35:52;;;;;;;85.75;14.13;;;5.10;99.90;;;;;;5095241;27;20051;-65
2022/01/12 10:38:18;;;;;;;79.90;14.80;;;5.10;99.90;;;;;;5110323;28;20075;-64
2022/01/12 10:40:59;;;;;;;67.28;15.15;;;5.10;99.90;;;;;;5093735;28;20427;-64
2022/01/12 10:43:33;;;;;;;85.47;15.02;;;5.20;99.90;;;;;;5097133;28;20044;-64
2022/01/12 10:46:02;;;;;;;98.30;16.65;;;5.30;99.90;;;;;;5124476;27;20252;-63
2022/01/12 10:48:40;;;;;;;78.82;14.70;;;5.30;99.90;;;;;;5099912;28;20080;-63
2022/01/12 10:51:06;;;;;;;89.45;15.45;;;5.30;99.90;;;;;;5105328;27;20050;-64
2022/01/12 10:53:34;;;;;;;84.75;14.77;;;5.20;99.90;;;;;;5109980;28;20052;-65
2022/01/12 10:56:09;;;;;;;76.72;12.95;;;5.20;99.90;;;;;;5096337;27;20066;-63
2022/01/12 10:58:39;;;;;;;67.40;11.57;;;5.20;99.90;;;;;;5129399;27;20023;-63
2022/01/12 11:01:05;;;;;;;66.22;12.80;;;5.10;99.90;;;;;;5098881;27;20051;-63
2022/01/12 11:03:31;;;;;;;69.03;13.00;;;5.20;99.90;;;;;;5129978;27;20058;-64
2022/01/12 11:05:58;;;;;;;78.13;10.70;;;5.10;99.90;;;;;;5118464;27;20090;-63
2022/01/12 11:08:25;;;;;;;80.05;12.40;;;5.20;99.90;;;;;;5124160;27;20070;-63
2022/01/12 11:10:55;;;;;;;64.97;11.00;;;5.00;99.90;;;;;;5112880;27;20070;-64
2022/01/12 11:13:21;;;;;;;87.95;12.75;;;5.10;99.90;;;;;;5131282;27;20038;-65
2022/01/12 11:15:48;;;;;;;89.38;13.38;;;5.20;99.90;;;;;;5091471;28;20279;-66
2022/01/12 11:18:15;;;;;;;79.57;12.27;;;5.20;99.90;;;;;;5130209;27;20054;-63
2022/01/12 11:20:44;;;;;;;72.40;10.95;;;5.30;99.90;;;;;;5112904;27;20039;-65
2022/01/12 11:23:17;;;;;;;70.25;12.07;;;5.10;99.90;;;;;;5094982;28;20047;-65
2022/01/12 11:25:49;;;;;;;54.72;11.80;;;5.10;99.90;;;;;;5102091;28;20051;-66
2022/01/12 11:28:15;;;;;;;48.42;11.70;;;5.10;99.90;;;;;;5117396;28;20636;-65
2022/01/12 11:31:00;;;;;;;53.92;11.45;;;5.10;99.90;;;;;;5127176;27;20068;-62
2022/01/12 11:33:32;;;;;;;71.72;12.15;;;5.20;99.90;;;;;;5109550;28;20077;-62
2022/01/12 11:36:10;;;;;;;49.28;12.32;;;5.10;99.90;;;;;;5114213;27;20073;-63
2022/01/12 11:38:36;;;;;;;77.38;12.88;;;5.10;99.90;;;;;;5123841;27;20075;-63
2022/01/12 11:41:15;;;;;;;68.40;12.82;;;5.20;99.90;;;;;;5099401;27;20062;-63
2022/01/12 11:43:44;;;;;;;84.33;12.50;;;5.20;99.90;;;;;;5116771;27;20047;-63
2022/01/12 11:46:16;;;;;;;67.55;12.00;;;5.20;99.90;;;;;;5103542;27;20057;-63
2022/01/12 11:48:43;;;;;;;65.45;11.35;;;5.20;99.90;;;;;;5123724;27;20333;-62
2022/01/12 11:51:09;;;;;;;62.28;11.65;;;5.00;99.90;;;;;;5092263;27;20047;-63
2022/01/12 11:53:45;;;;;;;69.68;14.30;;;5.20;99.90;;;;;;5129439;27;20234;-63
2022/01/12 11:56:24;;;;;;;49.92;10.88;;;5.10;99.90;;;;;;5096759;27;20065;-62
2022/01/12 11:59:19;;;;;;;50.15;12.65;;;5.00;99.90;;;;;;5110177;28;20071;-62
2022/01/12 12:01:48;;;;;;;47.78;11.75;;;5.00;99.90;;;;;;5108610;27;20161;-62
2022/01/12 12:04:51;;;;;;;55.78;12.60;;;5.20;99.90;;;;;;5111663;27;20035;-63
2022/01/12 12:07:17;;;;;;;60.58;13.32;;;5.20;99.90;;;;;;5120438;27;20046;-63
2022/01/12 12:09:48;;;;;;;56.00;12.57;;;5.20;99.90;;;;;;5108744;27;20131;-63
2022/01/12 12:12:26;;;;;;;52.17;12.73;;;5.20;99.90;;;;;;5101420;27;20045;-62
2022/01/12 12:14:55;;;;;;;71.30;13.65;;;5.20;99.90;;;;;;5098816;28;20056;-63
2022/01/12 12:17:26;;;;;;;54.63;12.55;;;5.20;99.90;;;;;;5103106;27;20494;-63
2022/01/12 12:19:53;;;;;;;50.90;13.27;;;5.10;99.90;;;;;;5085728;28;20371;-63
2022/01/12 12:22:25;;;;;;;57.53;12.50;;;5.30;99.90;;;;;;5114763;27;20047;-62
2022/01/12 12:24:59;;;;;;;56.17;13.50;;;5.20;99.90;;;;;;5108319;27;20051;-62
2022/01/12 12:27:26;;;;;;;48.53;12.18;;;5.50;99.90;;;;;;5100273;27;20054;-63
2022/01/12 12:29:53;;;;;;;48.75;12.73;;;5.50;99.90;;;;;;5099412;28;20058;-62
2022/01/12 12:32:31;;;;;;;45.67;11.15;;;5.50;99.90;;;;;;5105440;28;20044;-63
2022/01/12 12:35:13;;;;;;;48.78;12.50;;;5.40;99.90;;;;;;5100424;28;20055;-62
2022/01/12 12:37:45;;;;;;;38.60;11.95;;;5.50;99.90;;;;;;5093848;28;20059;-63
2022/01/12 12:40:38;;;;;;;44.80;11.88;;;5.40;99.90;;;;;;5116666;28;20043;-63
2022/01/12 12:43:14;;;;;;;41.40;11.85;;;5.50;99.90;;;;;;5120540;28;20043;-63
2022/01/12 12:45:56;;;;;;;40.92;11.23;;;5.40;99.90;;;;;;5114669;28;20067;-63
2022/01/12 12:48:25;;;;;;;39.55;11.40;;;5.40;99.90;;;;;;5089757;28;20047;-63
2022/01/12 12:51:04;;;;;;;43.28;11.93;;;5.60;99.90;;;;;;5107263;28;20043;-62
2022/01/12 12:53:32;;;;;;;38.17;12.27;;;5.60;99.90;;;;;;5086966;28;20067;-63
2022/01/12 12:55:58;;;;;;;41.17;11.02;;;5.70;99.90;;;;;;5106483;28;20042;-63
2022/01/12 12:58:28;;;;;;;36.08;10.75;;;5.60;99.90;;;;;;5132757;28;20044;-66
2022/01/12 13:01:07;;;;;;;40.28;11.63;;;5.70;99.90;;;;;;5100024;28;20092;-66
2022/01/12 13:03:35;;;;;;;30.67;10.25;;;5.60;99.90;;;;;;5085434;28;20154;-66
2022/01/12 13:06:00;;;;;;;38.28;10.45;;;5.70;99.90;;;;;;5107084;28;20039;-66
2022/01/12 13:08:26;;;;;;;26.65;9.40;;;5.80;99.90;;;;;;5126511;28;20104;-66
2022/01/12 13:10:52;;;;;;;46.58;11.27;;;5.70;99.90;;;;;;5131387;28;20044;-66
2022/01/12 13:13:18;;;;;;;30.90;10.55;;;5.80;99.90;;;;;;5107121;28;20056;-66
2022/01/12 13:15:45;;;;;;;36.90;11.27;;;5.80;99.90;;;;;;5117761;28;20048;-66
2022/01/12 13:18:19;;;;;;;39.67;11.40;;;5.90;99.90;;;;;;5122303;28;20519;-66
2022/01/12 13:23:36;;;;;;;43.70;11.48;;;5.80;99.90;;;;;;5103706;28;20065;-66
2022/01/12 13:26:05;;;;;;;45.35;11.63;;;5.80;99.90;;;;;;5087645;28;20039;-66
2022/01/12 13:28:32;;;;;;;31.90;10.70;;;5.80;99.90;;;;;;5113576;28;20504;-66
2022/01/12 13:31:01;;;;;;;38.63;12.25;;;5.70;99.90;;;;;;5094800;28;20047;-66
2022/01/12 13:33:38;;;;;;;35.90;12.02;;;5.70;99.90;;;;;;5104787;28;20044;-66
2022/01/12 13:36:24;;;;;;;40.85;13.13;;;5.80;99.90;;;;;;5110474;28;20047;-66
2022/01/12 13:38:59;;;;;;;40.05;12.75;;;5.70;99.90;;;;;;5126829;28;20063;-66
2022/01/12 13:41:39;;;;;;;36.42;11.27;;;5.80;99.90;;;;;;5111022;27;20219;-64
2022/01/12 13:44:16;;;;;;;34.92;11.23;;;5.70;99.90;;;;;;5122093;28;20082;-67
2022/01/12 13:47:03;;;;;;;34.60;11.13;;;5.60;99.90;;;;;;5111341;27;20574;-64
2022/01/12 13:49:29;;;;;;;42.25;12.52;;;5.70;99.90;;;;;;5127183;27;20043;-64
2022/01/12 13:52:00;;;;;;;40.08;11.45;;;5.80;99.90;;;;;;5098445;27;20050;-64
2022/01/12 13:54:41;;;;;;;36.45;13.88;;;5.70;99.90;;;;;;5126394;27;20051;-65
2022/01/12 13:57:09;;;;;;;;;;;5.70;99.90;;;;;;5125771;27;20046;-65
2022/01/12 13:59:52;;;;;;;48.40;14.48;;;5.80;99.90;;;;;;5138101;27;19935;-64
2022/01/12 14:02:21;;;;;;;43.60;15.77;;;5.70;99.90;;;;;;5119785;27;20081;-65